Share

Aurelia, IA

9:08 AM CDT on April 24, 2014 (GMT -0500)
Cherokee Municipal (KCKP) Elev 1227 ft | 42.73 °N, 95.56 °W | Change Station

Current weather conditions updated 13 minutes ago

Overcast
Overcast
46 °F
Feels Like 46 °F
N
0
Wind Variable Wind from North
Sunrise 6:26 AM
Sunset 8:14 PM
Moon Waning Crescent

Today is forecast to be Warmer than yesterday. Light rain in the morning.

Pressure 29.67 in
Visibility 10.0 miles
Clouds Overcast 2200 ft
Dew Point 45 °F
Humidity 95%
Rainfall 0.20 in
Snow Depth Not available.
UV 1 out of 16
Pollen 7.70 out of 12
Air Quality Not available.
Flu Activity Sporadic
METAR KCKP 241355Z AUTO 00000KT 10SM OVC022 08/07 A2967 RMK AO2 T00770070

More Conditions Fewer Conditions

Pressure 29.67 in
Visibility 10.0 miles
Clouds Overcast 2200 ft
Dew Point 45 °F
Humidity 95%
Rainfall 0.20 in
Snow Depth Not available.
UV 1 out of 16
Pollen 7.70 out of 12
Air Quality Not available.
Flu Activity Sporadic
METAR KCKP 241355Z AUTO 00000KT 10SM OVC022 08/07 A2967 RMK AO2 T00770070

More Conditions Fewer Conditions

10-Day Weather Forecast

Almanac

Astronomy

Apr. 24, 2014 Rise Set
Actual Time 6:26 AM CDT 8:14 PM CDT
Civil Twilight 5:56 AM CDT 8:44 PM CDT
Nautical Twilight 5:19 AM CDT 9:21 PM CDT
Astronomical Twilight 4:39 AM CDT 10:01 PM CDT
Moon 3:44 AM CDT 3:24 PM CDT
Length of Visible Light 14h 48m
Length of Day
13h 48m
Tomorrow will be 2m 38s longer.
Waning Crescent, 25% of the Moon is Illuminated
Today
Waning Crescent
Apr 29
New
May 6
First Quarter
May 14
Full
May 21
Last Quarter

Today's Extremes

State Highs State Lows

Community

  • Clouds mov'n in
    Clouds mov'n in
  • Stacked
    Stacked
  • clouds approaching Red Sox Nation
    clouds approaching Red Sox Nation
  • Balance
    Balance
  • Citysky
    Citysky

WunderPhotos

Upload Photos

1,704,612 photos uploaded!

Nearby

Snow Depth

Station Depth Elevation
No new snow has been reported.

Coastal Water Temperatures

Place Temperature
No Stations Reporting

Earthquake Activity

City Distance Mag. Time & Date
No recent earthquake activity has been reported nearby.
Minimum magnitude displayed is 2.5.

Nearby Weather Stations

Station Location Temp. Windchill Dew Point Humidity Wind Precip. Elev Updated Type
Ricklefs Home, Storm Lake, IA 44.8 °F 43 °F 44 °F 97% NNE  at  3.8 mph 0.00 in / hr 1414 ft 9:08 AM CDT Rapid Fire
Holstein Ag Services, LLC, Holstein, IA 46.1 °F 44 °F 45 °F 96% NNE  at  4.0 mph 0.00 in / hr 1381 ft 9:07 AM CDT Rapid Fire

Show More Stations Show Fewer Stations

What do you think?

We're not finished. Please let us know what you like, what you don't like, and what you are still missing.